Tiempo atmosférico en la estación meteorológica de Maspalomas, Las Palmas (25 m.)



Fecha
DESCASC
Temp. máxima en grados centígrados (hora)
DESCASC
Temp. mínima en grados centígrados (hora)
DESCASC
Temp. media en grados centígrados
DESCASC
Racha de viento máxima en m/sg (hora)
DESCASC
Velocidad máxima media en intervalos de 10 minutos(hora)
DESCASC
Precipitaciones diarias en mm
DESCASC
Precipitaciones de 00:00 a 06:00 en mm
DESCASC
Precipitaciones de 06:00 a 12:00 en mm
DESCASC
Precipitaciones de 12:00 a 18:00 en mm
DESCASC
Precipitaciones de 18:00 a 24:00 en mm
DESCASC
05-12-2019 26.2 (12:30) 16 (23:20) 21.1 8.89 (10:50) 6.39 (04:10) 0.4 0 0 0 0.4
04-12-2019 22.8 (14:20) 15.1 (04:20) 18.9 7.5 (17:40) 5.28 (17:40) 0 0 0 0 0
03-12-2019 24 (11:40) 16.4 (00:00) 20.2 8.33 (11:50) 6.67 (17:00) 0 0 0 0 0
02-12-2019 23.2 (12:50) 16 (00:00) 19.6 8.06 (16:00) 6.67 (16:00) 0 0 0 0 0
01-12-2019 24 (10:40) 15.7 (00:00) 19.8 14.17 (12:50) 10 (14:00) 0 0 0 0 0
30-11-2019 27.1 (01:50) 17.8 (00:00) 22.4 10.28 (11:20) 7.78 (11:20) 0 0 0 0 0
29-11-2019 27.5 (13:50) 17.5 (00:00) 22.5 12.5 (11:30) 9.17 (11:30) 0 0 0 0 0
28-11-2019 25.2 (12:40) 15.2 (00:00) 20.2 10.28 (23:00) 7.5 (14:30) 0 0 0 0 0
27-11-2019 24 (13:10) 16.1 (00:00) 20.1 6.94 (13:20) 4.17 (12:50) 0 0 0 0 0
26-11-2019 23.1 (11:50) 15.9 (00:00) 19.5 5 (12:00) 3.89 (12:40) 0 0 0 0 0
25-11-2019 24.5 (13:40) 15.6 (00:00) 20.1 10.28 (14:10) 5.56 (18:20) 0 0 0 0 0
24-11-2019 24.2 (11:40) 16.7 (00:00) 20.5 7.78 (21:40) 5 (23:30) 0 0 0 0 0
23-11-2019 23.7 (13:00) 18 (00:00) 20.9 6.11 (17:40) 4.72 (17:50) 0 0 0 0 0
22-11-2019 25 (15:50) 16.7 (00:00) 20.9 6.39 (03:10) 4.17 (10:10) 0 0 0 0 0
21-11-2019 22.8 (13:50) 17.7 (00:00) 20.3 8.06 (16:00) 5.56 (15:50) 0.3 0.3 0 0 0
20-11-2019 22.9 (10:40) 15.7 (00:00) 19.3 7.78 (12:50) 5.28 (13:10) 0 0 0 0 0
19-11-2019 22.9 (09:20) 14.9 (00:00) 18.9 8.61 (16:20) 6.67 (16:10) 0 0 0 0 0
18-11-2019 23.6 (13:30) 14.1 (00:00) 18.9 13.33 (12:50) 9.17 (15:00) 0 0 0 0 0
17-11-2019 22.8 (13:20) 17.6 (00:00) 20.2 16.39 (15:00) 10.83 (13:40) 0 0 0 0 0
16-11-2019 23.9 (10:20) 15 (00:00) 19.4 13.33 (20:50) 8.33 (22:40) 0 0 0 0 0
15-11-2019 22.9 (10:20) 17.2 (00:00) 20.1 14.72 (16:10) 9.17 (13:00) 0 0 0 0 0
14-11-2019 24.9 (12:30) 17.2 (00:00) 21.1 13.61 (21:30) 8.61 (12:00) 0 0 0 0 0
13-11-2019 25.7 (10:50) 16.8 (00:00) 21.3 9.17 (16:30) 6.11 (16:20) 0 0 0 0 0
12-11-2019 25.2 (12:20) 17.1 (00:00) 21.2 7.22 (16:00) 5.56 (16:00) 0 0 0 0 0
11-11-2019 26.2 (14:20) 16.2 (05:30) 21.2 8.61 (16:10) 5.83 (15:50) 0 0 0 0 0
10-11-2019 25.3 (14:20) 16.7 (00:00) 21 18.61 (10:00) 11.67 (11:50) 0 0 0 0 0
09-11-2019 25.4 (14:20) 17.2 (00:00) 21.3 16.39 (15:20) 9.72 (14:00) 0 0 0 0 0
08-11-2019 25.3 (11:10) 20.3 (00:00) 22.8 19.72 (13:20) 11.94 (13:20) 0 0 0 0 0

Gráficas

Temp. máximas Temp. mínimas Temp. medias Precipitaciones Rachas de viento máximas Velocidades máximas media en intervalos de 10 minutos

Datos horarios

Fecha y hora oficial Temperatura (ºC) Velocidad del viento (km/h) Dirección del viento Racha (km/h) Dirección de racha Precipitación (mm) Presión (hPa) Tendencia (hPa) Humedad (%)
2019-12-07 23:00:00 19.2 24 Nordeste 43 Nordeste 0 -- -- 69
2019-12-07 22:00:00 19.1 29 Nordeste 45 Este 0 -- -- 70
2019-12-07 21:00:00 19.1 27 Nordeste 39 Este 0 -- -- 71
2019-12-07 20:00:00 19.8 13 Nordeste 28 Este 0 -- -- 61
2019-12-07 19:00:00 19.9 14 Nordeste 38 Nordeste 0 -- -- 65
2019-12-07 18:00:00 20 27 Nordeste 39 Nordeste 0 -- -- 65
2019-12-07 17:00:00 21.1 22 Nordeste 41 Nordeste 0 -- -- 61
2019-12-07 16:00:00 24.2 12 Nordeste 38 Nordeste 0 -- -- 51
2019-12-07 15:00:00 22.3 14 Sudoeste 25 Sudoeste 0 -- -- 62
2019-12-07 14:00:00 21.2 13 Sudoeste 22 Sudoeste 0 -- -- 62
2019-12-07 13:00:00 21.7 14 Oeste 21 Sudoeste 0 -- -- 60
2019-12-07 12:00:00 22.1 10 Oeste 17 Oeste 0 -- -- 59
2019-12-07 11:00:00 21.6 10 Oeste 21 Oeste 0 -- -- 60
2019-12-07 10:00:00 21.7 0 Calma 8 Nordeste 0 -- -- 56
2019-12-07 09:00:00 19.3 3 Noroeste 5 Noroeste 0 -- -- 69
2019-12-07 08:00:00 15.1 5 Nordeste 11 Noroeste 0 -- -- 78
2019-12-07 07:00:00 15.5 3 Norte 9 Norte 0 -- -- 76
2019-12-07 06:00:00 16.2 4 Norte 15 Nordeste 0 -- -- 74
2019-12-07 05:00:00 16 2 Norte 8 Nordeste 0 -- -- 74
2019-12-07 04:00:00 16.6 2 Norte 13 Norte 0 -- -- 72
2019-12-07 03:00:00 16.7 3 Norte 8 Nordeste 0 -- -- 71
2019-12-07 02:00:00 17 3 Norte 11 Nordeste 0 -- -- 70
2019-12-07 01:00:00 17.9 4 Norte 12 Norte 0 -- -- 66
2019-12-07 00:00:00 17.4 0 Calma 28 Este 0 -- -- 67
2019-12-06 23:00:00 18.6 17 Nordeste 30 Nordeste 0 -- -- 69
2019-12-06 22:00:00 18.5 4 Nordeste 13 Nordeste 0 -- -- 67
2019-12-06 21:00:00 18.5 7 Nordeste 13 Nordeste 0 -- -- 68
2019-12-06 20:00:00 19.2 9 Nordeste 25 Este 0 -- -- 65
2019-12-06 19:00:00 19.9 3 Sudeste 19 Sur 0 -- -- 67
2019-12-06 18:00:00 20.2 19 Sur 23 Sur 0 -- -- 69
2019-12-06 17:00:00 20.2 16 Sur 23 Sur 0 -- -- 69
2019-12-06 16:00:00 20.6 18 Sur 26 Sur 0 -- -- 66
2019-12-06 15:00:00 21.6 18 Sur 22 Sur 0 -- -- 62
2019-12-06 14:00:00 22 14 Sudoeste 23 Sudoeste 0 -- -- 59
2019-12-06 13:00:00 20.8 18 Sudoeste 22 Sudoeste 0 -- -- 61
2019-12-06 12:00:00 20.8 18 Sudoeste 22 Sudoeste 0 -- -- 62
2019-12-06 11:00:00 21.2 13 Sudoeste 17 Sudoeste 0 -- -- 61
2019-12-06 10:00:00 20.9 4 Oeste 9 Sudoeste 0 -- -- 61
2019-12-06 09:00:00 19.7 0 Calma 7 Nordeste 0 -- -- 69
2019-12-06 08:00:00 16 0 Calma 8 Noroeste 0 -- -- 76
2019-12-06 07:00:00 16.4 0 Calma 6 Noroeste 0 -- -- 76
2019-12-06 06:00:00 16.3 0 Calma 8 Nordeste 0 -- -- 76
2019-12-06 05:00:00 16 0 Calma 6 Noroeste 0 -- -- 78
2019-12-06 04:00:00 15.9 2 Noroeste 10 Noroeste 0 -- -- 80
2019-12-06 03:00:00 15.5 2 Norte 7 Nordeste 0 -- -- 83
2019-12-06 02:00:00 15.4 0 Calma 5 Nordeste 0.2 -- -- 84
2019-12-06 01:00:00 16.2 0 Calma 6 Nordeste 0 -- -- 80
2019-12-06 00:00:00 16 4 Este 8 Noroeste 0.1 -- -- 79
2019-12-05 23:00:00 16.2 0 Calma 10 Nordeste 0.3 -- -- 76
2019-12-05 22:00:00 18.1 3 Nordeste 8 Nordeste 0 -- -- 60
2019-12-05 21:00:00 19 3 Noroeste 13 Nordeste 0 -- -- 53
2019-12-05 20:00:00 19.1 0 Calma 22 Oeste 0 -- -- 51
2019-12-05 19:00:00 19.7 3 Norte 21 Este 0 -- -- 52
2019-12-05 18:00:00 20.7 4 Oeste 23 Sudoeste 0 -- -- 51
2019-12-05 17:00:00 20.4 15 Sur 22 Sur 0 -- -- 59
2019-12-05 16:00:00 20.9 12 Sur 19 Sur 0 -- -- 54
2019-12-05 15:00:00 22.5 5 Sudoeste 26 Sudeste 0 -- -- 48
2019-12-05 14:00:00 25.1 6 Noroeste 28 Oeste 0 -- -- 40
2019-12-05 13:00:00 23.9 5 Noroeste 31 Oeste 0 -- -- 44
2019-12-05 12:00:00 23.7 8 Oeste 19 Noroeste 0 -- -- 44
2019-12-05 11:00:00 24 4 Norte 32 Noroeste 0 -- -- 42
2019-12-05 10:00:00 22.9 2 Noroeste 18 Noroeste 0 -- -- 42
2019-12-05 09:00:00 20.4 9 Sudoeste 16 Sudoeste 0 -- -- 55
2019-12-05 08:00:00 17 0 Calma 13 Nordeste 0 -- -- 84
2019-12-05 07:00:00 18.1 8 Sudoeste 12 Sudoeste 0 -- -- 81
2019-12-05 06:00:00 16.7 3 Oeste 8 Oeste 0 -- -- 88
2019-12-05 05:00:00 16.8 8 Este 30 Este 0 -- -- 87
2019-12-05 04:00:00 17.4 21 Este 27 Este 0 -- -- 84
2019-12-05 03:00:00 19.2 5 Oeste 11 Noroeste 0 -- -- 68
2019-12-05 02:00:00 19.1 4 Noroeste 20 Noroeste 0 -- -- 71
2019-12-05 01:00:00 17.6 2 Noroeste 10 Noroeste 0 -- -- 72
2019-12-05 00:00:00 17.7 2 Noroeste 9 Sudoeste 0 -- -- 71
2019-12-04 23:00:00 19 3 Sudoeste 9 Sudeste 0 -- -- 71
2019-12-04 22:00:00 19.9 7 Sudeste 9 Sudeste 0 -- -- 67
2019-12-04 21:00:00 19.8 4 Este 9 Nordeste 0 -- -- 66
2019-12-04 20:00:00 19.6 5 Nordeste 14 Sudeste 0 -- -- 66
2019-12-04 19:00:00 20.2 11 Sudeste 19 Sudoeste 0 -- -- 66
2019-12-04 18:00:00 20.5 13 Sudoeste 27 Sudoeste 0 -- -- 66
2019-12-04 17:00:00 22 9 Sudoeste 16 Sudoeste 0 -- -- 59
2019-12-04 16:00:00 20.6 15 Sudeste 19 Sudeste 0 -- -- 65
2019-12-04 15:00:00 20.9 14 Este 20 Sudeste 0 -- -- 61
2019-12-04 14:00:00 22 9 Sudoeste 26 Sur 0 -- -- 55
2019-12-04 13:00:00 21 15 Sur 19 Sur 0 -- -- 62
2019-12-04 12:00:00 21.6 12 Sur 14 Sur 0 -- -- 59
2019-12-04 11:00:00 21.3 8 Este 12 Este 0 -- -- 61
2019-12-04 10:00:00 21.6 5 Este 8 Este 0 -- -- 56
2019-12-04 09:00:00 19.8 0 Calma 5 Norte 0 -- -- 61
2019-12-04 08:00:00 17.3 4 Nordeste 12 Nordeste 0 -- -- 69
2019-12-04 07:00:00 16.1 2 Norte 11 Norte 0 -- -- 64
2019-12-04 06:00:00 15.3 2 Noroeste 4 Norte 0 -- -- 65
2019-12-04 05:00:00 15.3 0 Calma 5 Nordeste 0 -- -- 64
2019-12-04 04:00:00 15.5 0 Calma 5 Noroeste 0 -- -- 64
2019-12-04 03:00:00 15.6 0 Calma 5 Noroeste 0 -- -- 65
2019-12-04 02:00:00 15.9 0 Calma 6 Noroeste 0 -- -- 62
2019-12-04 01:00:00 17.1 0 Calma 9 Noroeste 0 -- -- 60
2019-12-04 00:00:00 17.9 0 Calma 7 Oeste 0 -- -- 56
2019-12-03 23:00:00 20 3 Oeste 14 Oeste 0 -- -- 52
2019-12-03 22:00:00 19.4 0 Calma 14 Sur 0 -- -- 64
2019-12-03 21:00:00 20.1 4 Sur 22 Sudoeste 0 -- -- 64
2019-12-03 20:00:00 20 17 Sudoeste 24 Sudoeste 0 -- -- 69
2019-12-03 19:00:00 20.4 12 Sur 23 Sur 0 -- -- 64
2019-12-03 18:00:00 20.4 19 Sur 28 Sur 0 -- -- 65
2019-12-03 17:00:00 20.8 24 Sur 28 Sur 0 -- -- 64
2019-12-03 16:00:00 21.3 22 Sur 26 Sur 0 -- -- 61
2019-12-03 15:00:00 22.3 18 Sudoeste 26 Sur 0 -- -- 56
2019-12-03 14:00:00 22.1 21 Sur 26 Sur 0 -- -- 57
2019-12-03 13:00:00 21.8 16 Sur 20 Sur 0 -- -- 57
2019-12-03 12:00:00 21.6 10 Sur 30 Sudoeste 0 -- -- 59
2019-12-03 11:00:00 22.1 9 Sur 15 Sudoeste 0 -- -- 60
2019-12-03 10:00:00 20.4 6 Sudeste 8 Sudeste 0 -- -- 66
2019-12-03 09:00:00 21.4 0 Calma 5 Este 0 -- -- 66
2019-12-03 08:00:00 17.5 0 Calma 12 Nordeste 0 -- -- 75
2019-12-03 07:00:00 16.5 10 Nordeste 15 Este 0 -- -- 75
2019-12-03 06:00:00 17.6 0 Calma 7 Nordeste 0 -- -- 73
2019-12-03 05:00:00 18.1 8 Este 17 Nordeste 0 -- -- 74
2019-12-03 04:00:00 18.3 4 Oeste 10 Noroeste 0 -- -- 75
2019-12-03 03:00:00 17 5 Noroeste 8 Noroeste 0 -- -- 76
2019-12-03 02:00:00 16.5 0 Calma 5 Nordeste 0 -- -- 76
2019-12-03 01:00:00 17.6 0 Calma 15 Sudeste 0 -- -- 74
2019-12-03 00:00:00 17.7 3 Nordeste 13 Este 0 -- -- 75
2019-12-02 23:00:00 18.2 3 Nordeste 11 Sudeste 0 -- -- 75
2019-12-02 22:00:00 19 6 Este 14 Sur 0 -- -- 73
2019-12-02 21:00:00 20 5 Sur 7 Sudoeste 0 -- -- 71
2019-12-02 20:00:00 20.1 10 Sudeste 25 Este 0 -- -- 71
2019-12-02 19:00:00 20.1 14 Nordeste 23 Nordeste 0 -- -- 72
2019-12-02 18:00:00 21 13 Nordeste 20 Nordeste 0 -- -- 67
2019-12-02 17:00:00 22.8 3 Sur 28 Sudoeste 0 -- -- 66
2019-12-02 16:00:00 21.5 24 Sudoeste 29 Sudoeste 0 -- -- 72
2019-12-02 15:00:00 22 19 Sudoeste 23 Sudoeste 0 -- -- 71
2019-12-02 14:00:00 22.7 13 Sudoeste 19 Sudoeste 0 -- -- 66
2019-12-02 13:00:00 22.5 10 Sudoeste 18 Sudoeste 0 -- -- 65
2019-12-02 12:00:00 21.7 15 Sur 20 Sudoeste 0 -- -- 69
2019-12-02 11:00:00 21.4 14 Sur 17 Sudoeste 0 -- -- 70
2019-12-02 10:00:00 21 11 Sur 14 Sur 0 -- -- 72
2019-12-02 09:00:00 19.6 4 Norte 8 Nordeste 0 -- -- 74
2019-12-02 08:00:00 16.4 0 Calma 8 Norte 0 -- -- 80
2019-12-02 07:00:00 16.4 0 Calma 14 Sudoeste 0 -- -- 82
2019-12-02 06:00:00 16.4 0 Calma 9 Noroeste 0 -- -- 85
2019-12-02 05:00:00 16.1 0 Calma 7 Nordeste 0 -- -- 84
2019-12-02 04:00:00 16.7 0 Calma 3 Oeste 0 -- -- 81
2019-12-02 03:00:00 17.8 0 Calma 7 Noroeste 0 -- -- 76
2019-12-02 02:00:00 18.5 0 Calma 6 Norte 0 -- -- 75
2019-12-02 01:00:00 18.6 4 Nordeste 12 Este 0 -- -- 71
2019-12-02 00:00:00 18.7 3 Nordeste 15 Norte 0 -- -- 66
2019-12-01 23:00:00 18.8 9 Nordeste 15 Nordeste 0 -- -- 67
2019-12-01 22:00:00 18.9 4 Nordeste 15 Este 0 -- -- 67
2019-12-01 21:00:00 19.6 6 Nordeste 19 Este 0 -- -- 68
2019-12-01 20:00:00 19.9 13 Este 27 Este 0 -- -- 67
2019-12-01 19:00:00 20.3 14 Nordeste 34 Nordeste 0 -- -- 69
2019-12-01 18:00:00 20.7 19 Nordeste 31 Nordeste 0 -- -- 69
2019-12-01 17:00:00 22.6 5 Sudoeste 35 Nordeste 0 -- -- 67
2019-12-01 16:00:00 22.1 25 Nordeste 44 Este 0 -- -- 69
2019-12-01 15:00:00 21.9 32 Este 50 Este 0 -- -- 69
2019-12-01 14:00:00 22.4 36 Este 48 Nordeste 0 -- -- 67
2019-12-01 13:00:00 22.5 35 Este 51 Este 0 -- -- 65
2019-12-01 12:00:00 23.1 30 Nordeste 44 Este 0 -- -- 64
2019-12-01 11:00:00 22.9 5 Sudoeste 23 Este 0 -- -- 67
2019-12-01 10:00:00 22.1 12 Nordeste 19 Este 0 -- -- 65
2019-12-01 09:00:00 20.8 2 Nordeste 6 Nordeste 0 -- -- 61
2019-12-01 08:00:00 16 3 Norte 6 Norte 0 -- -- 68
2019-12-01 07:00:00 16.1 0 Calma 9 Nordeste 0 -- -- 69
2019-12-01 06:00:00 16.3 3 Norte 5 Nordeste 0 -- -- 65
2019-12-01 05:00:00 16 3 Norte 8 Nordeste 0 -- -- 66
2019-12-01 04:00:00 17.1 5 Nordeste 10 Norte 0 -- -- 69
2019-12-01 03:00:00 18 7 Norte 14 Nordeste 0 -- -- 67
2019-12-01 02:00:00 17.2 3 Norte 6 Nordeste 0 -- -- 66
2019-12-01 01:00:00 18 0 Calma 5 Nordeste 0 -- -- 68
2019-12-01 00:00:00 18.5 4 Nordeste 7 Nordeste 0 -- -- 63
2019-11-30 23:00:00 18.7 5 Norte 10 Nordeste 0 -- -- 74
2019-11-30 22:00:00 18.6 4 Nordeste 12 Nordeste 0 -- -- 83
2019-11-30 21:00:00 19.6 6 Nordeste 10 Nordeste 0 -- -- 84
2019-11-30 20:00:00 20.5 6 Nordeste 20 Nordeste 0 -- -- 84
2019-11-30 19:00:00 21.2 12 Nordeste 28 Nordeste 0 -- -- 81
2019-11-30 18:00:00 22.2 21 Nordeste 29 Este 0 -- -- 76
2019-11-30 17:00:00 24 21 Nordeste 31 Este 0 -- -- 64
2019-11-30 16:00:00 24.1 25 Este 36 Este 0 -- -- 55
2019-11-30 15:00:00 24.3 24 Este 37 Este 0 -- -- 52
2019-11-30 14:00:00 25.3 23 Este 31 Este 0 -- -- 48
2019-11-30 13:00:00 24.6 23 Este 34 Este 0 -- -- 47
2019-11-30 12:00:00 25 25 Este 37 Nordeste 0 -- -- 47
2019-11-30 11:00:00 24.3 26 Este 35 Este 0 -- -- 50
2019-11-30 10:00:00 24.2 25 Este 35 Nordeste 0 -- -- 46
2019-11-30 09:00:00 24.9 24 Este 31 Este 0 -- -- 39
2019-11-30 08:00:00 24.2 20 Nordeste 31 Nordeste 0 -- -- 39
2019-11-30 07:00:00 23.7 14 Nordeste 22 Nordeste 0 -- -- 41
2019-11-30 06:00:00 24.6 19 Nordeste 29 Nordeste 0 -- -- 35
2019-11-30 05:00:00 24.3 18 Nordeste 31 Nordeste 0 -- -- 37
2019-11-30 04:00:00 23.1 14 Nordeste 30 Nordeste 0 -- -- 45
2019-11-30 03:00:00 22.7 18 Nordeste 28 Este 0 -- -- 46
2019-11-30 02:00:00 25.8 17 Nordeste 32 Nordeste 0 -- -- 31
2019-11-30 01:00:00 24.7 17 Nordeste 30 Este 0 -- -- 39
2019-11-30 00:00:00 23.6 17 Nordeste 37 Nordeste 0 -- -- 45
2019-11-29 23:00:00 22.4 22 Nordeste 35 Nordeste 0 -- -- 52
2019-11-29 22:00:00 22 24 Nordeste 35 Nordeste 0 -- -- 57
2019-11-29 21:00:00 21.1 10 Nordeste 16 Nordeste 0 -- -- 62
2019-11-29 20:00:00 22.2 0 Calma 18 Nordeste 0 -- -- 56
2019-11-29 19:00:00 22.7 10 Nordeste 23 Nordeste 0 -- -- 57
2019-11-29 18:00:00 22.9 16 Nordeste 27 Nordeste 0 -- -- 56
2019-11-29 17:00:00 24.2 18 Nordeste 30 Este 0 -- -- 49
2019-11-29 16:00:00 25.6 21 Nordeste 33 Este 0 -- -- 46
2019-11-29 15:00:00 25.4 22 Nordeste 37 Nordeste 0 -- -- 45
2019-11-29 14:00:00 26.4 24 Nordeste 37 Este 0 -- -- 40
2019-11-29 13:00:00 26.3 26 Este 38 Este 0 -- -- 42
2019-11-29 12:00:00 26.4 28 Nordeste 45 Nordeste 0 -- -- 40
2019-11-29 11:00:00 26.2 28 Este 40 Este 0 -- -- 39
2019-11-29 10:00:00 26.3 27 Nordeste 40 Nordeste 0 -- -- 36
2019-11-29 09:00:00 25 24 Nordeste 41 Nordeste 0 -- -- 39
2019-11-29 08:00:00 24.6 20 Nordeste 38 Nordeste 0 -- -- 37
2019-11-29 07:00:00 22.4 22 Nordeste 39 Nordeste 0 -- -- 52
2019-11-29 06:00:00 21.6 19 Nordeste 36 Nordeste 0 -- -- 56
2019-11-29 05:00:00 20.3 23 Nordeste 41 Este 0 -- -- 70
2019-11-29 04:00:00 20.3 18 Nordeste 30 Nordeste 0 -- -- 69
2019-11-29 03:00:00 18.1 5 Nordeste 21 Nordeste 0 -- -- 72
2019-11-29 02:00:00 18.8 3 Noroeste 8 Noroeste 0 -- -- 82
2019-11-29 01:00:00 20.9 2 Oeste 28 Nordeste 0 -- -- 69
2019-11-29 00:00:00 21.1 13 Nordeste 32 Nordeste 0 -- -- 56
2019-11-28 23:00:00 20.9 19 Nordeste 37 Nordeste 0 -- -- 62
2019-11-28 22:00:00 17.9 2 Norte 6 Nordeste 0 -- -- 78
2019-11-28 21:00:00 19.8 0 Calma 6 Sudoeste 0 -- -- 79
2019-11-28 20:00:00 20.7 4 Oeste 20 Nordeste 0 -- -- 75
2019-11-28 19:00:00 20.9 12 Nordeste 30 Nordeste 0 -- -- 75
2019-11-28 18:00:00 21.5 14 Nordeste 25 Nordeste 0 -- -- 70
2019-11-28 17:00:00 22.9 10 Nordeste 28 Este 0 -- -- 61
2019-11-28 16:00:00 22.6 23 Este 31 Nordeste 0 -- -- 60
2019-11-28 15:00:00 24.2 24 Nordeste 35 Este 0 -- -- 47
2019-11-28 14:00:00 23.7 23 Este 31 Este 0 -- -- 60
2019-11-28 13:00:00 24.1 10 Nordeste 30 Este 0 -- -- 57
2019-11-28 12:00:00 22 14 Sudoeste 19 Sudoeste 0 -- -- 74
2019-11-28 11:00:00 22.2 8 Sudoeste 11 Sudoeste 0 -- -- 69
2019-11-28 10:00:00 21.9 3 Sur 6 Sudoeste 0 -- -- 69
2019-11-28 09:00:00 17.6 4 Norte 9 Nordeste 0 -- -- 76
2019-11-28 08:00:00 15.8 3 Norte 9 Nordeste 0 -- -- 81
2019-11-28 07:00:00 16 3 Norte 9 Nordeste 0 -- -- 81
2019-11-28 06:00:00 15.7 4 Norte 10 Norte 0 -- -- 81
2019-11-28 05:00:00 17 5 Nordeste 11 Este 0 -- -- 81
2019-11-28 04:00:00 16.3 4 Nordeste 8 Nordeste 0 -- -- 84
2019-11-28 03:00:00 17 3 Noroeste 7 Norte 0 -- -- 84
2019-11-28 02:00:00 16 0 Calma 5 Noroeste 0 -- -- 89
2019-11-28 01:00:00 16.8 0 Calma 8 Noroeste 0 -- -- 90
2019-11-28 00:00:00 17.7 0 Calma 5 Este 0 -- -- 90
2019-11-27 23:00:00 18.3 0 Calma 6 Noroeste 0 -- -- 89
2019-11-27 22:00:00 18.3 2 Noroeste 8 Oeste 0 -- -- 86
2019-11-27 21:00:00 18.8 0 Calma 4 Este 0 -- -- 85
2019-11-27 20:00:00 19.9 2 Sur 5 Sur 0 -- -- 81
2019-11-27 19:00:00 20.6 0 Calma 11 Sudoeste 0 -- -- 76
2019-11-27 18:00:00 21.2 6 Oeste 12 Sudoeste 0 -- -- 74
2019-11-27 17:00:00 22 10 Oeste 21 Oeste 0 -- -- 72
2019-11-27 16:00:00 22.4 11 Oeste 23 Oeste 0 -- -- 70
2019-11-27 15:00:00 22.3 11 Oeste 23 Oeste 0 -- -- 70
2019-11-27 14:00:00 22.6 10 Oeste 25 Oeste 0 -- -- 70
2019-11-27 13:00:00 23.4 9 Sudoeste 22 Sudoeste 0 -- -- 69
2019-11-27 05:00:00 16.6 0 Calma 4 Noroeste 0 -- -- 90
2019-11-27 04:00:00 16.8 0 Calma 6 Nordeste 0 -- -- 90
2019-11-27 03:00:00 17.1 0 Calma 2 Norte 0 -- -- 89
2019-11-27 02:00:00 17.6 0 Calma 5 Nordeste 0 -- -- 87
2019-11-27 01:00:00 18.1 0 Calma 10 Nordeste 0 -- -- 87
2019-11-27 00:00:00 17.4 3 Norte 6 Noroeste 0 -- -- 87
2019-11-26 23:00:00 17.9 0 Calma 5 Noroeste 0 -- -- 86
2019-11-26 22:00:00 18.7 0 Calma 4 Nordeste 0 -- -- 85
2019-11-26 21:00:00 19.9 3 Sudoeste 9 Sudoeste 0 -- -- 81
2019-11-26 20:00:00 20 0 Calma 8 Oeste 0 -- -- 79
2019-11-26 19:00:00 20.5 3 Oeste 11 Oeste 0 -- -- 76
2019-11-26 18:00:00 21.1 5 Oeste 10 Sudoeste 0 -- -- 72
2019-11-26 17:00:00 22.2 6 Sudoeste 15 Sur 0 -- -- 71
2019-11-26 16:00:00 21.4 10 Sur 15 Sudoeste 0 -- -- 72
2019-11-26 15:00:00 22.6 12 Sudoeste 14 Sudoeste 0 -- -- 70
2019-11-26 14:00:00 22 11 Sudoeste 15 Sudoeste 0 -- -- 70
2019-11-26 13:00:00 21.6 13 Sudoeste 18 Sudoeste 0 -- -- 70
2019-11-26 12:00:00 21.8 10 Oeste 18 Sudoeste 0 -- -- 69
2019-11-26 11:00:00 22.2 7 Oeste 12 Oeste 0 -- -- 67
2019-11-26 10:00:00 22 3 Sudeste 8 Este 0 -- -- 67
2019-11-26 09:00:00 20.6 2 Norte 6 Norte 0 -- -- 73
2019-11-26 08:00:00 16.5 3 Norte 9 Nordeste 0 -- -- 83
2019-11-26 07:00:00 16.1 2 Norte 5 Noroeste 0 -- -- 82
2019-11-26 06:00:00 16 3 Norte 6 Nordeste 0 -- -- 83
2019-11-26 05:00:00 16 2 Norte 5 Norte 0 -- -- 83
2019-11-26 04:00:00 16.1 2 Norte 7 Noroeste 0 -- -- 83
2019-11-26 03:00:00 16.9 3 Noroeste 5 Noroeste 0 -- -- 80
2019-11-26 02:00:00 16.7 2 Norte 6 Norte 0 -- -- 80
2019-11-26 01:00:00 17.2 0 Calma 4 Nordeste 0 -- -- 79
2019-11-26 00:00:00 18.6 0 Calma 10 Este 0 -- -- 75
2019-11-25 23:00:00 18.7 3 Norte 10 Nordeste 0 -- -- 74
2019-11-25 22:00:00 19.3 6 Nordeste 11 Este 0 -- -- 72
2019-11-25 21:00:00 19.6 6 Este 9 Este 0 -- -- 72
2019-11-25 20:00:00 20.1 0 Calma 18 Oeste 0 -- -- 72
2019-11-25 19:00:00 20.4 11 Oeste 27 Sudoeste 0 -- -- 72
2019-11-25 18:00:00 20.5 18 Sudoeste 23 Sudoeste 0 -- -- 73
2019-11-25 17:00:00 21.4 7 Oeste 18 Sudoeste 0 -- -- 66
2019-11-25 16:00:00 21.2 10 Oeste 22 Oeste 0 -- -- 66
2019-11-25 15:00:00 22.1 2 Norte 37 Sudeste 0 -- -- 64
2019-11-25 14:00:00 23 5 Sudeste 22 Este 0 -- -- 60
2019-11-25 13:00:00 21.4 12 Oeste 22 Oeste 0 -- -- 66
2019-11-25 12:00:00 21.2 12 Oeste 24 Oeste 0 -- -- 65
2019-11-25 11:00:00 21.7 12 Oeste 25 Este 0 -- -- 65
2019-11-25 10:00:00 22.1 5 Sudoeste 11 Sudoeste 0 -- -- 61
2019-11-25 09:00:00 21.1 0 Calma 10 Nordeste 0 -- -- 65
2019-11-25 08:00:00 16.3 3 Norte 9 Nordeste 0 -- -- 75
2019-11-25 07:00:00 16.2 0 Calma 6 Nordeste 0 -- -- 75
2019-11-25 06:00:00 16.9 0 Calma 5 Nordeste 0 -- -- 74
2019-11-25 05:00:00 17.1 3 Norte 9 Nordeste 0 -- -- 74
2019-11-25 04:00:00 18.1 0 Calma 6 Nordeste 0 -- -- 70
2019-11-25 03:00:00 19.6 7 Nordeste 15 Nordeste 0 -- -- 65
2019-11-25 02:00:00 19.7 3 Nordeste 11 Nordeste 0 -- -- 64
2019-11-25 01:00:00 19.4 5 Nordeste 15 Nordeste 0 -- -- 64
2019-11-25 00:00:00 19.8 11 Nordeste 28 Nordeste 0 -- -- 62
2019-11-24 23:00:00 20.1 16 Nordeste 28 Nordeste 0 -- -- 62
2019-11-24 22:00:00 20.2 10 Nordeste 28 Este 0 -- -- 65
2019-11-24 21:00:00 19.5 8 Este 18 Este 0 -- -- 75
2019-11-24 20:00:00 20.9 0 Calma 9 Oeste 0 -- -- 76
2019-11-24 19:00:00 20.9 6 Sudoeste 12 Sudoeste 0 -- -- 76
2019-11-24 18:00:00 21.4 4 Sudoeste 10 Sudoeste 0 -- -- 75
2019-11-24 17:00:00 21.6 6 Sudoeste 11 Sudoeste 0 -- -- 75
2019-11-24 16:00:00 21.6 5 Sur 12 Sudoeste 0 -- -- 74
2019-11-24 15:00:00 21.8 11 Sudoeste 15 Sudoeste 0 -- -- 74
2019-11-24 14:00:00 22.5 14 Sudoeste 21 Sudoeste 0 -- -- 70
2019-11-24 13:00:00 23.8 9 Oeste 18 Oeste 0 -- -- 66
2019-11-24 12:00:00 22.3 11 Sudoeste 14 Sudoeste 0 -- -- 70
2019-11-24 11:00:00 22.6 8 Sudoeste 13 Sudoeste 0 -- -- 66
2019-11-24 10:00:00 22.8 3 Sur 10 Sudeste 0 -- -- 67
2019-11-24 09:00:00 20.4 2 Norte 5 Nordeste 0 -- -- 76
2019-11-24 08:00:00 17.1 0 Calma 5 Noroeste 0 -- -- 85
2019-11-24 07:00:00 16.9 0 Calma 5 Noroeste 0 -- -- 85
2019-11-24 06:00:00 17.2 0 Calma 5 Noroeste 0 -- -- 85
2019-11-24 05:00:00 17.6 0 Calma 6 Noroeste 0 -- -- 84
2019-11-24 04:00:00 17.4 0 Calma 5 Noroeste 0 -- -- 82
2019-11-24 03:00:00 17.5 0 Calma 5 Noroeste 0 -- -- 84
2019-11-24 02:00:00 18 0 Calma 4 Oeste 0 -- -- 85
2019-11-24 01:00:00 18.2 0 Calma 8 Este 0 -- -- 85
2019-11-24 00:00:00 19 0 Calma 8 Oeste 0 -- -- 85
2019-11-23 23:00:00 20.9 3 Oeste 7 Oeste 0 -- -- 83
2019-11-23 22:00:00 20.3 0 Calma 8 Oeste 0 -- -- 85
2019-11-23 21:00:00 20.7 3 Oeste 10 Oeste 0 -- -- 85
2019-11-23 20:00:00 20.8 3 Oeste 10 Sudoeste 0 -- -- 85
2019-11-23 19:00:00 20.8 0 Calma 12 Sudeste 0 -- -- 84
2019-11-23 18:00:00 21 12 Este 22 Este 0 -- -- 82
2019-11-23 17:00:00 22.7 5 Sudeste 9 Sudoeste 0 -- -- 75
2019-11-23 16:00:00 22.9 5 Sur 14 Sudoeste 0 -- -- 76
2019-11-23 15:00:00 22.6 11 Sudoeste 16 Sudoeste 0 -- -- 80
2019-11-23 14:00:00 22.1 12 Sudoeste 16 Sudoeste 0 -- -- 76
2019-11-23 13:00:00 23.3 9 Sudoeste 12 Sur 0 -- -- 71
2019-11-23 12:00:00 22.2 8 Sur 10 Sur 0 -- -- 75
2019-11-23 11:00:00 22.6 5 Sur 9 Sur 0 -- -- 76
2019-11-23 10:00:00 22.2 5 Sur 9 Sudoeste 0 -- -- 76
2019-11-23 09:00:00 21.7 3 Sudoeste 9 Sudoeste 0 -- -- 79
2019-11-23 08:00:00 19 0 Calma 6 Noroeste 0 -- -- 89
2019-11-23 07:00:00 19.9 8 Sudoeste 13 Sudoeste 0 -- -- 88
2019-11-23 06:00:00 19.6 6 Sudoeste 12 Sudoeste 0 -- -- 89
2019-11-23 05:00:00 18.1 0 Calma 4 Noroeste 0 -- -- 90
2019-11-23 04:00:00 18.5 0 Calma 5 Noroeste 0 -- -- 91
2019-11-23 03:00:00 18.2 0 Calma 5 Noroeste 0 -- -- 91
2019-11-23 02:00:00 19.7 3 Oeste 10 Oeste 0 -- -- 90
2019-11-23 01:00:00 20.1 5 Oeste 10 Oeste 0 -- -- 89
2019-11-23 00:00:00 20.1 3 Oeste 10 Oeste 0 -- -- 88
2019-11-22 23:00:00 20.6 9 Sudoeste 12 Oeste 0 -- -- 87
2019-11-22 22:00:00 20.6 7 Oeste 13 Oeste 0 -- -- 87
2019-11-22 21:00:00 20.7 6 Oeste 11 Oeste 0 -- -- 85
2019-11-22 20:00:00 20.9 5 Oeste 8 Oeste 0 -- -- 83
2019-11-22 19:00:00 21.4 3 Oeste 7 Sudoeste 0 -- -- 77
2019-11-22 18:00:00 22.3 5 Sudoeste 8 Sudoeste 0 -- -- 72
2019-11-22 17:00:00 23.5 6 Sudoeste 8 Sur 0 -- -- 69
2019-11-22 16:00:00 23.9 6 Sudoeste 15 Sudoeste 0 -- -- 69
2019-11-22 15:00:00 23.3 10 Sudoeste 13 Sudoeste 0 -- -- 71
2019-11-22 14:00:00 24.2 7 Sudoeste 10 Sur 0 -- -- 70
2019-11-22 13:00:00 23.5 4 Sur 9 Sudeste 0 -- -- 70
2019-11-22 12:00:00 23 7 Este 17 Este 0 -- -- 70
2019-11-22 11:00:00 22.4 14 Este 19 Este 0 -- -- 76
2019-11-22 10:00:00 20.9 14 Sudeste 17 Sudeste 0 -- -- 80
2019-11-22 09:00:00 21.3 9 Este 12 Este 0 -- -- 75
2019-11-22 08:00:00 17.4 0 Calma 5 Norte 0 -- -- 84
2019-11-22 07:00:00 18.2 0 Calma 19 Oeste 0 -- -- 91
2019-11-22 06:00:00 20 9 Oeste 16 Oeste 0 -- -- 91
2019-11-22 05:00:00 20.1 6 Noroeste 21 Oeste 0 -- -- 91
2019-11-22 04:00:00 20.3 9 Oeste 23 Oeste 0 -- -- 91
2019-11-22 03:00:00 20.3 11 Oeste 22 Oeste 0 -- -- 91
2019-11-22 02:00:00 20.6 8 Oeste 22 Oeste 0 -- -- 91
2019-11-22 01:00:00 20.4 9 Oeste 22 Oeste 0 -- -- 89
2019-11-22 00:00:00 20.4 8 Oeste 21 Oeste 0 -- -- 86
2019-11-21 23:00:00 20.4 8 Oeste 21 Oeste 0 -- -- 86
2019-11-21 22:00:00 20.5 6 Noroeste 23 Oeste 0 -- -- 85
2019-11-21 21:00:00 20.5 5 Oeste 17 Oeste 0 -- -- 78
2019-11-21 20:00:00 20.8 9 Oeste 22 Oeste 0 -- -- 75
2019-11-21 19:00:00 20.6 9 Oeste 20 Oeste 0 -- -- 75
2019-11-21 18:00:00 21 12 Oeste 23 Oeste 0 -- -- 73
2019-11-21 17:00:00 21.9 11 Oeste 26 Oeste 0 -- -- 70
2019-11-21 16:00:00 21.7 17 Oeste 29 Sudoeste 0 -- -- 67
2019-11-21 15:00:00 22.1 19 Oeste 28 Sudoeste 0 -- -- 69
2019-11-21 14:00:00 22.4 14 Oeste 27 Sudoeste 0 -- -- 70
2019-11-21 13:00:00 21.7 19 Oeste 27 Oeste 0 -- -- 71
2019-11-21 12:00:00 22.6 16 Sudoeste 26 Oeste 0 -- -- 70
2019-11-21 11:00:00 22.4 14 Oeste 21 Oeste 0 -- -- 68
2019-11-21 10:00:00 22 8 Oeste 16 Oeste 0 -- -- 72
2019-11-21 09:00:00 21 5 Oeste 10 Oeste 0 -- -- 81
2019-11-21 08:00:00 19.2 0 Calma 8 Sudoeste 0 -- -- 90
2019-11-21 07:00:00 -- -- -- -- -- -- -- -- --
2019-11-21 06:00:00 -- -- -- -- -- -- -- -- --
2019-11-21 05:00:00 -- -- -- -- -- -- -- -- --
2019-11-21 04:00:00 -- -- -- -- -- -- -- -- --
2019-11-21 03:00:00 -- -- -- -- -- -- -- -- --
2019-11-21 02:00:00 -- -- -- -- -- -- -- -- --
2019-11-21 01:00:00 -- -- -- -- -- -- -- -- --
2019-11-21 00:00:00 -- -- -- -- -- -- -- -- --
2019-11-20 23:00:00 -- -- -- -- -- -- -- -- --
2019-11-20 22:00:00 -- -- -- -- -- -- -- -- --
2019-11-20 21:00:00 -- -- -- -- -- -- -- -- --
2019-11-20 20:00:00 20.4 7 Oeste 23 Oeste 0 -- -- 80
2019-11-20 19:00:00 20.5 11 Oeste 23 Oeste 0 -- -- 78
2019-11-20 18:00:00 20.6 13 Oeste 25 Oeste 0 -- -- 76
2019-11-20 17:00:00 21.5 14 Oeste 24 Oeste 0 -- -- 74
2019-11-20 16:00:00 21.8 14 Oeste 28 Sudoeste 0 -- -- 71
2019-11-20 15:00:00 22 15 Oeste 27 Oeste 0 -- -- 72
2019-11-20 14:00:00 22.1 15 Oeste 28 Oeste 0 -- -- 72
2019-11-20 13:00:00 21.8 17 Oeste 28 Sudoeste 0 -- -- 71
2019-11-20 12:00:00 22 13 Oeste 23 Oeste 0 -- -- 71
2019-11-20 11:00:00 21.8 13 Sudoeste 19 Sudoeste 0 -- -- 71
2019-11-20 10:00:00 22 5 Oeste 10 Oeste 0 -- -- 70
2019-11-20 09:00:00 21.4 0 Calma 6 Norte 0 -- -- 65
2019-11-20 08:00:00 16.9 0 Calma 6 Noroeste 0 -- -- 76
2019-11-20 07:00:00 15.9 0 Calma 7 Noroeste 0 -- -- 79
2019-11-20 06:00:00 16.1 0 Calma 3 Oeste 0 -- -- 79
2019-11-20 05:00:00 16.5 0 Calma 4 Noroeste 0 -- -- 79
2019-11-20 04:00:00 17.1 0 Calma 3 Noroeste 0 -- -- 79
2019-11-20 03:00:00 17.3 0 Calma 8 Noroeste 0 -- -- 81
2019-11-20 02:00:00 17.9 0 Calma 9 Sudoeste 0 -- -- 82
2019-11-20 01:00:00 19.1 2 Oeste 11 Sudoeste 0 -- -- 83
2019-11-20 00:00:00 19.5 5 Oeste 15 Sudoeste 0 -- -- 80
2019-11-19 23:00:00 19.8 11 Sudoeste 14 Sudoeste 0 -- -- 80
2019-11-19 22:00:00 20.1 12 Sudoeste 20 Sudoeste 0 -- -- 80
2019-11-19 21:00:00 20.2 15 Sudoeste 20 Sudoeste 0 -- -- 79
2019-11-19 20:00:00 20.1 16 Sudoeste 23 Sudoeste 0 -- -- 79
2019-11-19 19:00:00 20.2 20 Sudoeste 26 Sudoeste 0 -- -- 78
2019-11-19 18:00:00 20.6 21 Sudoeste 26 Sudoeste 0 -- -- 75
2019-11-19 17:00:00 21.3 22 Sudoeste 31 Sur 0 -- -- 74
2019-11-19 16:00:00 20.8 22 Sur 28 Sur 0 -- -- 75
2019-11-19 15:00:00 20.9 16 Sur 21 Sudeste 0 -- -- 71
2019-11-19 14:00:00 20.5 16 Sudeste 21 Sudeste 0 -- -- 74
2019-11-19 13:00:00 21.4 14 Sudeste 17 Sudeste 0 -- -- 67
2019-11-19 12:00:00 21.7 10 Sur 13 Sur 0 -- -- 66
2019-11-19 11:00:00 21.9 7 Sur 10 Sudoeste 0 -- -- 67
2019-11-19 10:00:00 21.9 6 Sudoeste 11 Sudoeste 0 -- -- 66
2019-11-19 09:00:00 21.7 0 Calma 6 Norte 0 -- -- 62
2019-11-19 08:00:00 16.5 0 Calma 10 Noroeste 0 -- -- 76
2019-11-19 07:00:00 15.2 3 Noroeste 9 Noroeste 0 -- -- 78
2019-11-19 06:00:00 15.3 0 Calma 6 Noroeste 0 -- -- 78
2019-11-19 05:00:00 15.7 0 Calma 6 Noroeste 0 -- -- 78
2019-11-19 04:00:00 15.8 0 Calma 5 Noroeste 0 -- -- 77
2019-11-19 03:00:00 15.9 0 Calma 6 Nordeste 0 -- -- 76
2019-11-19 02:00:00 15.9 0 Calma 4 Noroeste 0 -- -- 76
2019-11-19 01:00:00 16.4 0 Calma 4 Noroeste 0 -- -- 75
2019-11-19 00:00:00 16.7 0 Calma 0 Calma 0 -- -- 75
2019-11-18 23:00:00 17.1 0 Calma 5 Norte 0 -- -- 73
2019-11-18 22:00:00 17.7 0 Calma 13 Nordeste 0 -- -- 70
2019-11-18 21:00:00 18.7 9 Este 14 Este 0 -- -- 67
2019-11-18 20:00:00 19.3 10 Nordeste 19 Nordeste 0 -- -- 65
2019-11-18 19:00:00 19.7 6 Nordeste 25 Nordeste 0 -- -- 65
2019-11-18 18:00:00 20.6 2 Nordeste 40 Este 0 -- -- 64
2019-11-18 17:00:00 20.9 29 Nordeste 45 Este 0 -- -- 65
2019-11-18 16:00:00 21.9 15 Nordeste 44 Este 0 -- -- 63
2019-11-18 15:00:00 21.2 33 Este 44 Este 0 -- -- 64
2019-11-18 14:00:00 21.6 30 Nordeste 44 Nordeste 0 -- -- 59
2019-11-18 13:00:00 22.8 13 Nordeste 48 Nordeste 0 -- -- 56
2019-11-18 12:00:00 22.4 19 Nordeste 42 Este 0 -- -- 59
2019-11-18 11:00:00 21.7 16 Nordeste 37 Nordeste 0 -- -- 61
2019-11-18 10:00:00 21.6 0 Calma 5 Nordeste 0 -- -- 59
2019-11-18 09:00:00 18.7 3 Norte 6 Norte 0 -- -- 59
2019-11-18 08:00:00 15 0 Calma 6 Nordeste 0 -- -- 66
2019-11-18 07:00:00 14.5 3 Norte 4 Norte 0 -- -- 66
2019-11-18 06:00:00 14.4 3 Norte 4 Norte 0 -- -- 67
2019-11-18 05:00:00 14.4 2 Norte 4 Norte 0 -- -- 69
2019-11-18 04:00:00 14.6 3 Norte 6 Norte 0 -- -- 70
2019-11-18 03:00:00 15 3 Norte 5 Norte 0 -- -- 73
2019-11-18 02:00:00 15.3 0 Calma 5 Nordeste 0 -- -- 73
2019-11-18 01:00:00 16.1 0 Calma 18 Nordeste 0 -- -- 69
2019-11-18 00:00:00 18 9 Nordeste 25 Nordeste 0 -- -- 67
2019-11-17 23:00:00 18.4 17 Nordeste 37 Nordeste 0 -- -- 67
2019-11-17 22:00:00 18.3 22 Nordeste 38 Nordeste 0 -- -- 69
2019-11-17 21:00:00 18.3 22 Nordeste 43 Nordeste 0 -- -- 69
2019-11-17 20:00:00 18.5 25 Nordeste 48 Nordeste 0 -- -- 70
2019-11-17 19:00:00 18.8 27 Nordeste 47 Nordeste 0 -- -- 68
2019-11-17 18:00:00 19.3 28 Nordeste 46 Nordeste 0 -- -- 66
2019-11-17 17:00:00 19.8 31 Nordeste 48 Nordeste 0 -- -- 64
2019-11-17 16:00:00 20.2 31 Nordeste 55 Nordeste 0 -- -- 61
2019-11-17 15:00:00 20 32 Nordeste 59 Nordeste 0 -- -- 64
2019-11-17 14:00:00 19.9 35 Nordeste 55 Este 0 -- -- 66
2019-11-17 13:00:00 21.9 27 Nordeste 54 Nordeste 0 -- -- 50
2019-11-17 12:00:00 20.9 31 Nordeste 54 Nordeste 0 -- -- 59
2019-11-17 11:00:00 20.6 31 Nordeste 48 Este 0 -- -- 63
2019-11-17 10:00:00 19.5 24 Nordeste 46 Nordeste 0 -- -- 67
2019-11-17 09:00:00 19.3 23 Nordeste 45 Nordeste 0 -- -- 62
2019-11-17 08:00:00 17.8 22 Nordeste 44 Este 0 -- -- 70
2019-11-17 07:00:00 18 19 Nordeste 45 Nordeste 0 -- -- 66
2019-11-17 06:00:00 19 12 Nordeste 45 Nordeste 0 -- -- 59
2019-11-17 05:00:00 18.3 23 Nordeste 39 Nordeste 0 -- -- 67
2019-11-17 04:00:00 19.1 15 Nordeste 36 Nordeste 0 -- -- 65
2019-11-17 03:00:00 18.5 19 Nordeste 41 Nordeste 0 -- -- 69
2019-11-17 02:00:00 19.1 19 Nordeste 39 Nordeste 0 -- -- 62
2019-11-17 01:00:00 18.9 18 Nordeste 45 Este 0 -- -- 65
2019-11-17 00:00:00 18.8 24 Nordeste 45 Este 0 -- -- 67
2019-11-16 23:00:00 18.6 28 Nordeste 45 Nordeste 0 -- -- 74
2019-11-16 22:00:00 19.1 22 Nordeste 35 Nordeste 0 -- -- 65
2019-11-16 21:00:00 19 23 Nordeste 48 Nordeste 0 -- -- 66
2019-11-16 20:00:00 19.4 21 Nordeste 42 Nordeste 0 -- -- 64
2019-11-16 19:00:00 20.5 11 Nordeste 26 Nordeste 0 -- -- 59
2019-11-16 18:00:00 20.5 9 Sudeste 24 Sudoeste 0 -- -- 60
2019-11-16 17:00:00 21.6 16 Sudoeste 23 Sudoeste 0 -- -- 59
2019-11-16 16:00:00 22 17 Sudoeste 23 Sudoeste 0 -- -- 60
2019-11-16 15:00:00 21.5 21 Sudoeste 28 Sudoeste 0 -- -- 62
2019-11-16 14:00:00 21.4 18 Sudoeste 23 Sudoeste 0 -- -- 60
2019-11-16 13:00:00 22.1 17 Sudoeste 21 Sudoeste 0 -- -- 59
2019-11-16 12:00:00 21.8 18 Sudoeste 22 Sudoeste 0 -- -- 61
2019-11-16 11:00:00 21.4 7 Sur 16 Sur 0 -- -- 57
2019-11-16 10:00:00 22.8 2 Oeste 14 Este 0 -- -- 55
2019-11-16 09:00:00 19.9 0 Calma 12 Nordeste 0 -- -- 63
2019-11-16 08:00:00 15.4 3 Nordeste 9 Nordeste 0 -- -- 73
2019-11-16 07:00:00 15.5 0 Calma 5 Noroeste 0 -- -- 71
2019-11-16 06:00:00 15.9 2 Norte 9 Norte 0 -- -- 70
2019-11-16 05:00:00 15.7 2 Norte 9 Nordeste 0 -- -- 70
2019-11-16 04:00:00 15.8 0 Calma 8 Nordeste 0 -- -- 70
2019-11-16 03:00:00 16.8 4 Nordeste 13 Nordeste 0 -- -- 66
2019-11-16 02:00:00 16.6 5 Nordeste 41 Nordeste 0 -- -- 71
2019-11-16 01:00:00 18.5 15 Nordeste 36 Nordeste 0 -- -- 66
2019-11-16 00:00:00 18.6 10 Nordeste 41 Nordeste 0 -- -- 66
2019-11-15 23:00:00 19 13 Nordeste 30 Nordeste 0 -- -- 64
2019-11-15 22:00:00 19.3 20 Nordeste 42 Nordeste 0 -- -- 65
2019-11-15 21:00:00 19.3 18 Nordeste 43 Nordeste 0 -- -- 62
2019-11-15 20:00:00 19.5 17 Nordeste 44 Nordeste 0 -- -- 59
2019-11-15 19:00:00 19.6 23 Nordeste 46 Nordeste 0 -- -- 59
2019-11-15 18:00:00 19.6 27 Nordeste 48 Nordeste 0 -- -- 61
2019-11-15 17:00:00 20.5 27 Nordeste 53 Nordeste 0 -- -- 56
2019-11-15 16:00:00 20.5 25 Nordeste 45 Nordeste 0 -- -- 62
2019-11-15 15:00:00 21.2 19 Nordeste 49 Nordeste 0 -- -- 57
2019-11-15 14:00:00 21.2 27 Nordeste 49 Nordeste 0 -- -- 62
2019-11-15 13:00:00 20.4 33 Nordeste 48 Nordeste 0 -- -- 70
2019-11-15 12:00:00 20.1 26 Nordeste 44 Nordeste 0 -- -- 70
2019-11-15 11:00:00 21.5 18 Nordeste 35 Este 0 -- -- 67
2019-11-15 10:00:00 21.9 6 Nordeste 28 Nordeste 0 -- -- 66
2019-11-15 09:00:00 19.7 0 Calma 21 Este 0 -- -- 74
2019-11-15 08:00:00 17.7 0 Calma 10 Nordeste 0 -- -- 75
2019-11-15 07:00:00 17.6 0 Calma 6 Noroeste 0 -- -- 75
2019-11-15 06:00:00 17.9 0 Calma 6 Noroeste 0 -- -- 74
2019-11-15 05:00:00 18.6 0 Calma 19 Nordeste 0 -- -- 70
2019-11-15 04:00:00 20.1 9 Nordeste 21 Nordeste 0 -- -- 61
2019-11-15 03:00:00 19.7 13 Nordeste 29 Nordeste 0 -- -- 65
2019-11-15 02:00:00 20.1 9 Nordeste 29 Nordeste 0 -- -- 61
2019-11-15 01:00:00 19.9 16 Nordeste 39 Nordeste 0 -- -- 67
2019-11-15 00:00:00 20.6 10 Nordeste 41 Nordeste 0 -- -- 64
2019-11-14 23:00:00 20.3 26 Nordeste 44 Nordeste 0 -- -- 67
2019-11-14 22:00:00 20.3 21 Nordeste 49 Nordeste 0 -- -- 70
2019-11-14 21:00:00 20.6 22 Nordeste 35 Nordeste 0 -- -- 66
2019-11-14 20:00:00 20.6 24 Nordeste 34 Nordeste 0 -- -- 70
2019-11-14 19:00:00 21.1 18 Nordeste 40 Nordeste 0 -- -- 64
2019-11-14 18:00:00 21.3 27 Nordeste 41 Nordeste 0 -- -- 65
2019-11-14 17:00:00 22.5 0 Calma 16 Sur 0 -- -- 65
2019-11-14 16:00:00 22.6 5 Oeste 26 Sur 0 -- -- 66
2019-11-14 15:00:00 22.9 6 Norte 44 Nordeste 0 -- -- 62
2019-11-14 14:00:00 22.5 13 Este 42 Este 0 -- -- 65
2019-11-14 13:00:00 23.7 6 Oeste 35 Este 0 -- -- 59
2019-11-14 12:00:00 23.3 31 Este 44 Este 0 -- -- 59
2019-11-14 11:00:00 23.1 8 Oeste 15 Oeste 0 -- -- 64
2019-11-14 10:00:00 23 3 Oeste 15 Nordeste 0 -- -- 64
2019-11-14 09:00:00 19.9 5 Nordeste 14 Nordeste 0 -- -- 66
2019-11-14 08:00:00 17.8 0 Calma 9 Este 0 -- -- 70
2019-11-14 07:00:00 17.5 2 Norte 8 Nordeste 0 -- -- 74
2019-11-14 06:00:00 18.1 0 Calma 10 Nordeste 0 -- -- 74
2019-11-14 05:00:00 18.5 0 Calma 15 Este 0 -- -- 71
2019-11-14 04:00:00 18.3 6 Norte 11 Norte 0 -- -- 75
2019-11-14 03:00:00 18.2 0 Calma 11 Nordeste 0 -- -- 73
2019-11-14 02:00:00 18.8 4 Nordeste 13 Nordeste 0 -- -- 69
2019-11-14 01:00:00 19.2 3 Nordeste 12 Nordeste 0 -- -- 64
2019-11-14 00:00:00 19.7 8 Nordeste 21 Nordeste 0 -- -- 64
2019-11-13 23:00:00 19.7 5 Nordeste 17 Norte 0 -- -- 66
2019-11-13 22:00:00 20.7 11 Nordeste 22 Este 0 -- -- 61
2019-11-13 21:00:00 21 9 Nordeste 18 Nordeste 0 -- -- 64
2019-11-13 20:00:00 20.6 9 Nordeste 15 Nordeste 0 -- -- 67
2019-11-13 19:00:00 21.4 11 Sur 19 Oeste 0 -- -- 67
2019-11-13 18:00:00 22.2 8 Oeste 18 Sudoeste 0 -- -- 66
2019-11-13 17:00:00 23.8 5 Oeste 33 Sudoeste 0 -- -- 63
2019-11-13 16:00:00 22.5 16 Sudoeste 23 Sudoeste 0 -- -- 66
2019-11-13 15:00:00 24.4 10 Oeste 21 Sudoeste 0 -- -- 59
2019-11-13 14:00:00 24.5 13 Sudoeste 23 Sudoeste 0 -- -- 59
2019-11-13 13:00:00 24.3 10 Oeste 27 Sudoeste 0 -- -- 56
2019-11-13 12:00:00 24.6 11 Sudoeste 15 Sudoeste 0 -- -- 62
2019-11-13 11:00:00 24.3 7 Sudoeste 20 Sudoeste 0 -- -- 57
2019-11-13 10:00:00 24.1 4 Sudeste 24 Sudeste 0 -- -- 54
2019-11-13 09:00:00 21.7 0 Calma 7 Noroeste 0 -- -- 62
2019-11-13 08:00:00 18.6 3 Norte 11 Nordeste 0 -- -- 63
2019-11-13 07:00:00 17.9 3 Norte 10 Nordeste 0 -- -- 64
2019-11-13 06:00:00 17.5 0 Calma 12 Nordeste 0 -- -- 69
2019-11-13 05:00:00 17.6 0 Calma 11 Nordeste 0 -- -- 74
2019-11-13 04:00:00 -- 4 Norte 13 Noroeste 0 -- -- --
2019-11-13 03:00:00 17.6 0 Calma 9 Noroeste 0 -- -- 83
2019-11-13 02:00:00 20.1 5 Oeste 12 Noroeste 0 -- -- 85
2019-11-13 01:00:00 19.9 3 Oeste 8 Nordeste 0 -- -- 84
2019-11-13 00:00:00 20.2 6 Oeste 19 Sudoeste 0 -- -- 85
2019-11-12 23:00:00 21.3 8 Sudoeste 23 Sudoeste 0 -- -- 84
2019-11-12 22:00:00 21.6 15 Sudoeste 22 Sudoeste 0 -- -- 81
2019-11-12 21:00:00 21.5 10 Oeste 17 Sudoeste 0 -- -- 81
2019-11-12 20:00:00 21.7 4 Oeste 10 Oeste 0 -- -- 79
2019-11-12 19:00:00 22.3 3 Sudoeste 18 Sudoeste 0 -- -- 76
2019-11-12 18:00:00 22.7 12 Sudoeste 19 Sudoeste 0 -- -- 72
2019-11-12 17:00:00 23.8 13 Sudoeste 23 Sudoeste 0 -- -- 70
2019-11-12 16:00:00 23 20 Sudoeste 26 Sudoeste 0 -- -- 72
2019-11-12 15:00:00 24.5 11 Oeste 19 Oeste 0 -- -- 65
2019-11-12 14:00:00 24.8 8 Oeste 25 Oeste 0 -- -- 64
2019-11-12 13:00:00 23.8 13 Oeste 23 Oeste 0 -- -- 65
2019-11-12 12:00:00 23.8 11 Oeste 20 Oeste 0 -- -- 65
2019-11-12 11:00:00 23.2 8 Oeste 17 Oeste 0 -- -- 64
2019-11-12 10:00:00 24.1 0 Calma 10 Nordeste 0 -- -- 62
2019-11-12 09:00:00 21.5 2 Noroeste 14 Sudeste 0 -- -- 75
2019-11-12 08:00:00 17.9 0 Calma 13 Noroeste 0 -- -- 84
2019-11-12 07:00:00 17.4 0 Calma 5 Nordeste 0 -- -- 85
2019-11-12 06:00:00 17.6 0 Calma 9 Noroeste 0 -- -- 83
2019-11-12 05:00:00 17.7 2 Norte 6 Nordeste 0 -- -- 81
2019-11-12 04:00:00 18.5 2 Norte 10 Este 0 -- -- 79
2019-11-12 03:00:00 18.9 3 Norte 8 Nordeste 0 -- -- 77
2019-11-12 02:00:00 19.1 0 Calma 8 Este 0 -- -- 75
2019-11-12 01:00:00 19.7 0 Calma 13 Sudoeste 0 -- -- 74
2019-11-12 00:00:00 19.4 3 Norte 12 Nordeste 0 -- -- 74
2019-11-11 23:00:00 19.3 5 Nordeste 12 Norte 0 -- -- 72
2019-11-11 22:00:00 20.5 3 Nordeste 12 Nordeste 0 -- -- 70
2019-11-11 21:00:00 20 5 Nordeste 12 Nordeste 0 -- -- 71
2019-11-11 20:00:00 21.2 3 Nordeste 9 Norte 0 -- -- 67
2019-11-11 19:00:00 21.4 0 Calma 10 Sudoeste 0 -- -- 67
2019-11-11 18:00:00 23.1 6 Sudoeste 16 Sudoeste 0 -- -- 66
2019-11-11 17:00:00 23.9 8 Oeste 31 Sudoeste 0 -- -- 65
2019-11-11 16:00:00 23.8 19 Sudoeste 30 Sudoeste 0 -- -- 64
2019-11-11 15:00:00 23.9 13 Sudoeste 19 Sudoeste 0 -- -- 62
2019-11-11 14:00:00 25.3 7 Oeste 16 Sudoeste 0 -- -- 55
2019-11-11 13:00:00 23.5 13 Sudoeste 18 Sudoeste 0 -- -- 64
2019-11-11 12:00:00 23.5 18 Sudoeste 26 Oeste 0 -- -- 64
2019-11-11 11:00:00 22.9 17 Oeste 28 Sudoeste 0 -- -- 65
2019-11-11 10:00:00 23.1 9 Oeste 15 Sudoeste 0 -- -- 66
2019-11-11 09:00:00 21.7 0 Calma 13 Este 0 -- -- 65
2019-11-11 08:00:00 18.6 0 Calma 16 Norte 0 -- -- 74
2019-11-11 07:00:00 17.3 3 Noroeste 10 Noroeste 0 -- -- 73
2019-11-11 06:00:00 16.9 0 Calma 10 Nordeste 0 -- -- 73
2019-11-11 05:00:00 17.3 0 Calma 8 Oeste 0 -- -- 71
2019-11-11 04:00:00 17.3 0 Calma 9 Nordeste 0 -- -- 67
2019-11-11 03:00:00 18 5 Noroeste 15 Nordeste 0 -- -- 66
2019-11-11 02:00:00 19.5 9 Nordeste 29 Nordeste 0 -- -- 64
2019-11-11 01:00:00 20.4 7 Nordeste 29 Nordeste 0 -- -- 61
2019-11-11 00:00:00 19.7 5 Nordeste 39 Este 0 -- -- 60
2019-11-10 23:00:00 20.6 28 Nordeste 48 Nordeste 0 -- -- 62
2019-11-10 22:00:00 20.7 26 Nordeste 50 Nordeste 0 -- -- 62
2019-11-10 21:00:00 20.8 24 Nordeste 46 Nordeste 0 -- -- 67
2019-11-10 20:00:00 21.4 32 Nordeste 50 Este 0 -- -- 69
2019-11-10 19:00:00 22.3 28 Nordeste 54 Nordeste 0 -- -- 57
2019-11-10 18:00:00 22.7 27 Nordeste 54 Nordeste 0 -- -- 56
2019-11-10 17:00:00 24.4 24 Nordeste 51 Nordeste 0 -- -- 45
2019-11-10 16:00:00 24.4 34 Nordeste 62 Este 0 -- -- 44
2019-11-10 15:00:00 24.8 34 Nordeste 60 Nordeste 0 -- -- 39
2019-11-10 14:00:00 24.8 34 Nordeste 59 Nordeste 0 -- -- 45
2019-11-10 13:00:00 24.3 37 Nordeste 64 Nordeste 0 -- -- 47
2019-11-10 12:00:00 23.5 40 Nordeste 66 Este 0 -- -- 51
2019-11-10 11:00:00 22.7 40 Nordeste 64 Nordeste 0 -- -- 55
2019-11-10 10:00:00 22.5 32 Nordeste 67 Nordeste 0 -- -- 52
2019-11-10 09:00:00 21.9 21 Nordeste 39 Nordeste 0 -- -- 56
2019-11-10 08:00:00 18.1 2 Norte 15 Nordeste 0 -- -- 65
2019-11-10 07:00:00 17.1 3 Norte 21 Nordeste 0 -- -- 66
2019-11-10 06:00:00 19.4 5 Nordeste 37 Nordeste 0 -- -- 60
2019-11-10 05:00:00 19.2 8 Nordeste 33 Nordeste 0 -- -- 61
2019-11-10 04:00:00 19.7 18 Nordeste 35 Este 0 -- -- 60
2019-11-10 03:00:00 20.4 15 Nordeste 46 Nordeste 0 -- -- 59
2019-11-10 02:00:00 20.3 24 Nordeste 46 Nordeste 0 -- -- 60
2019-11-10 01:00:00 20.3 23 Nordeste 45 Nordeste 0 -- -- 59
2019-11-10 00:00:00 20.3 22 Nordeste 52 Nordeste 0 -- -- 63
2019-11-09 23:00:00 20.2 18 Nordeste 43 Nordeste 0 -- -- 65
2019-11-09 22:00:00 20.6 26 Nordeste 48 Nordeste 0 -- -- 61
2019-11-09 21:00:00 21.1 18 Nordeste 50 Nordeste 0 -- -- 60
2019-11-09 20:00:00 21.2 21 Nordeste 54 Nordeste 0 -- -- 59
2019-11-09 19:00:00 21.8 22 Nordeste 47 Nordeste 0 -- -- 51
2019-11-09 18:00:00 21.5 26 Nordeste 53 Nordeste 0 -- -- 55
2019-11-09 17:00:00 22.5 24 Nordeste 55 Nordeste 0 -- -- 55
2019-11-09 16:00:00 23.3 29 Nordeste 59 Nordeste 0 -- -- 51
2019-11-09 15:00:00 23.3 31 Nordeste 58 Nordeste 0 -- -- 50
2019-11-09 14:00:00 23.1 35 Nordeste 57 Nordeste 0 -- -- 56
2019-11-09 13:00:00 23.7 4 Sudoeste 17 Sudoeste 0 -- -- 59
2019-11-09 12:00:00 23.3 9 Oeste 16 Oeste 0 -- -- 59
2019-11-09 11:00:00 23.7 9 Sudoeste 35 Este 0 -- -- 56
2019-11-09 10:00:00 23.6 5 Oeste 15 Sudeste 0 -- -- 60
2019-11-09 09:00:00 21.9 10 Este 18 Este 0 -- -- 62
2019-11-09 08:00:00 19.7 0 Calma 32 Nordeste 0 -- -- 67
2019-11-09 07:00:00 18.4 4 Norte 17 Norte 0 -- -- 67
2019-11-09 06:00:00 17.6 3 Noroeste 14 Nordeste 0 -- -- 70
2019-11-09 05:00:00 19.2 4 Norte 40 Nordeste 0 -- -- 62
2019-11-09 04:00:00 20.2 10 Nordeste 45 Nordeste 0 -- -- 57
2019-11-09 03:00:00 20.1 9 Nordeste 30 Nordeste 0 -- -- 56
2019-11-09 02:00:00 18.8 7 Norte 17 Nordeste 0 -- -- 64
2019-11-09 01:00:00 19.4 7 Nordeste 20 Este 0 -- -- 59
2019-11-09 00:00:00 20.6 17 Nordeste 32 Norte 0 -- -- 57
2019-11-08 23:00:00 20.5 24 Nordeste 43 Nordeste 0 -- -- 59
2019-11-08 22:00:00 21.2 23 Nordeste 47 Nordeste 0 -- -- 57
2019-11-08 21:00:00 21.3 24 Nordeste 51 Este 0 -- -- 56
2019-11-08 20:00:00 20.9 31 Nordeste 55 Nordeste 0 -- -- 61
2019-11-08 19:00:00 21.8 30 Nordeste 55 Nordeste 0 -- -- 54
2019-11-08 18:00:00 21.6 36 Nordeste 57 Nordeste 0 -- -- 60
2019-11-08 17:00:00 22.3 37 Nordeste 63 Nordeste 0 -- -- 59
2019-11-08 16:00:00 22.6 41 Nordeste 66 Nordeste 0 -- -- 61
2019-11-08 15:00:00 23.5 40 Nordeste 66 Nordeste 0 -- -- 64
2019-11-08 14:00:00 24.6 37 Nordeste 71 Este 0 -- -- 59
2019-11-08 13:00:00 24.9 38 Nordeste 56 Nordeste 0 -- -- 57
2019-11-08 12:00:00 24.7 33 Nordeste 59 Nordeste 0 -- -- 60
2019-11-08 11:00:00 24.5 31 Nordeste 52 Nordeste 0 -- -- 56
2019-11-08 10:00:00 23.3 33 Nordeste 57 Nordeste 0 -- -- 64
2019-11-08 09:00:00 22.5 28 Nordeste 47 Nordeste 0 -- -- 65
2019-11-08 08:00:00 21.2 34 Nordeste 54 Nordeste 0 -- -- 70
2019-11-08 07:00:00 21.4 41 Nordeste 55 Nordeste 0 -- -- 67
2019-11-08 06:00:00 21.2 29 Nordeste 52 Este 0 -- -- 66
2019-11-08 05:00:00 20.9 31 Nordeste 50 Nordeste 0 -- -- 69
2019-11-08 04:00:00 20.9 26 Nordeste 46 Nordeste 0 -- -- 70
2019-11-08 03:00:00 20.9 26 Nordeste 42 Nordeste 0 -- -- 71
2019-11-08 02:00:00 21 29 Nordeste 45 Nordeste 0 -- -- 69
2019-11-08 01:00:00 20.6 5 Nordeste 36 Nordeste 0 -- -- 67
2019-11-08 00:00:00 21.4 22 Nordeste 45 Nordeste 0 -- -- 68